sensor_id;sensor_type;location;lat;lon;timestamp;pressure;altitude;pressure_sealevel;temperature;humidity
36192;BME280;22233;42.708;23.360;2023-03-05T00:00:16;94929.47;;;7.62;67.25
36192;BME280;22233;42.708;23.360;2023-03-05T00:02:41;94947.44;;;7.80;66.82
36192;BME280;22233;42.708;23.360;2023-03-05T00:05:07;94934.63;;;7.94;65.81
36192;BME280;22233;42.708;23.360;2023-03-05T00:07:33;94943.69;;;8.12;65.88
36192;BME280;22233;42.708;23.360;2023-03-05T00:09:59;94935.63;;;7.98;65.93
36192;BME280;22233;42.708;23.360;2023-03-05T00:12:25;94937.25;;;7.77;66.78
36192;BME280;22233;42.708;23.360;2023-03-05T00:14:50;94935.56;;;7.90;65.97
36192;BME280;22233;42.708;23.360;2023-03-05T00:17:16;94949.47;;;7.97;65.92
36192;BME280;22233;42.708;23.360;2023-03-05T00:19:41;94948.50;;;7.93;65.73
36192;BME280;22233;42.708;23.360;2023-03-05T00:22:07;94929.00;;;7.82;66.17
36192;BME280;22233;42.708;23.360;2023-03-05T00:24:32;94937.63;;;7.70;66.91
36192;BME280;22233;42.708;23.360;2023-03-05T00:26:58;94939.47;;;7.38;67.49
36192;BME280;22233;42.708;23.360;2023-03-05T00:29:23;94928.78;;;7.78;66.77
36192;BME280;22233;42.708;23.360;2023-03-05T00:31:49;94936.13;;;8.00;66.24
36192;BME280;22233;42.708;23.360;2023-03-05T00:34:17;94916.94;;;7.88;66.29
36192;BME280;22233;42.708;23.360;2023-03-05T00:36:45;94928.88;;;7.65;66.88
36192;BME280;22233;42.708;23.360;2023-03-05T00:39:11;94914.00;;;7.76;66.79
36192;BME280;22233;42.708;23.360;2023-03-05T00:41:37;94912.94;;;8.08;66.10
36192;BME280;22233;42.708;23.360;2023-03-05T00:44:03;94919.66;;;7.88;66.78
36192;BME280;22233;42.708;23.360;2023-03-05T00:46:29;94909.22;;;7.95;66.38
36192;BME280;22233;42.708;23.360;2023-03-05T00:48:55;94911.72;;;7.92;66.59
36192;BME280;22233;42.708;23.360;2023-03-05T00:51:20;94891.97;;;8.14;66.02
36192;BME280;22233;42.708;23.360;2023-03-05T00:53:46;94915.25;;;8.46;65.56
36192;BME280;22233;42.708;23.360;2023-03-05T00:56:12;94892.09;;;8.09;65.83
36192;BME280;22233;42.708;23.360;2023-03-05T00:58:37;94900.97;;;8.32;65.98
36192;BME280;22233;42.708;23.360;2023-03-05T01:01:03;94886.34;;;7.79;66.96
36192;BME280;22233;42.708;23.360;2023-03-05T01:03:30;94901.34;;;7.63;67.53
36192;BME280;22233;42.708;23.360;2023-03-05T01:05:57;94898.69;;;7.71;67.21
36192;BME280;22233;42.708;23.360;2023-03-05T01:08:23;94890.13;;;8.00;65.94
36192;BME280;22233;42.708;23.360;2023-03-05T01:10:49;94899.97;;;7.74;66.72
36192;BME280;22233;42.708;23.360;2023-03-05T01:13:14;94894.22;;;7.89;66.31
36192;BME280;22233;42.708;23.360;2023-03-05T01:15:40;94882.50;;;8.03;65.43
36192;BME280;22233;42.708;23.360;2023-03-05T01:18:05;94893.06;;;8.13;65.26
36192;BME280;22233;42.708;23.360;2023-03-05T01:20:31;94891.00;;;8.10;65.81
36192;BME280;22233;42.708;23.360;2023-03-05T01:22:56;94902.03;;;8.22;65.75
36192;BME280;22233;42.708;23.360;2023-03-05T01:25:24;94890.28;;;8.49;64.14
36192;BME280;22233;42.708;23.360;2023-03-05T01:27:50;94898.63;;;8.08;64.76
36192;BME280;22233;42.708;23.360;2023-03-05T01:30:15;94880.00;;;8.06;64.33
36192;BME280;22233;42.708;23.360;2023-03-05T01:32:41;94883.41;;;8.20;64.06
36192;BME280;22233;42.708;23.360;2023-03-05T01:35:07;94886.59;;;7.69;65.33
36192;BME280;22233;42.708;23.360;2023-03-05T01:37:33;94883.81;;;7.60;65.51
36192;BME280;22233;42.708;23.360;2023-03-05T01:39:58;94873.47;;;7.85;64.42
36192;BME280;22233;42.708;23.360;2023-03-05T01:42:24;94883.88;;;7.91;65.11
36192;BME280;22233;42.708;23.360;2023-03-05T01:45:18;94875.16;;;7.49;66.30
36192;BME280;22233;42.708;23.360;2023-03-05T01:47:44;94881.81;;;7.66;65.10
36192;BME280;22233;42.708;23.360;2023-03-05T01:50:18;94880.63;;;7.58;66.42
36192;BME280;22233;42.708;23.360;2023-03-05T01:52:49;94854.28;;;7.41;66.09
36192;BME280;22233;42.708;23.360;2023-03-05T01:55:19;94850.94;;;7.44;65.30
36192;BME280;22233;42.708;23.360;2023-03-05T02:00:42;94857.09;;;7.58;65.24
36192;BME280;22233;42.708;23.360;2023-03-05T02:03:11;94884.16;;;7.81;65.04
36192;BME280;22233;42.708;23.360;2023-03-05T02:05:38;94874.63;;;7.61;64.97
36192;BME280;22233;42.708;23.360;2023-03-05T02:08:07;94886.56;;;7.10;66.64
36192;BME280;22233;42.708;23.360;2023-03-05T02:10:39;94866.25;;;7.49;65.47
36192;BME280;22233;42.708;23.360;2023-03-05T02:13:08;94874.88;;;7.14;66.44
36192;BME280;22233;42.708;23.360;2023-03-05T02:15:35;94882.16;;;7.50;65.21
36192;BME280;22233;42.708;23.360;2023-03-05T02:18:01;94882.31;;;7.31;65.57
36192;BME280;22233;42.708;23.360;2023-03-05T02:20:30;94887.94;;;7.35;65.53
36192;BME280;22233;42.708;23.360;2023-03-05T02:22:56;94888.50;;;7.68;64.57
36192;BME280;22233;42.708;23.360;2023-03-05T02:25:27;94886.13;;;7.67;64.61
36192;BME280;22233;42.708;23.360;2023-03-05T02:28:48;94880.66;;;7.44;64.84
36192;BME280;22233;42.708;23.360;2023-03-05T02:30:48;94884.59;;;7.60;64.63
36192;BME280;22233;42.708;23.360;2023-03-05T02:33:15;94881.66;;;7.48;65.56
36192;BME280;22233;42.708;23.360;2023-03-05T02:35:41;94872.06;;;7.42;65.72
36192;BME280;22233;42.708;23.360;2023-03-05T02:38:15;94871.22;;;7.33;65.87
36192;BME280;22233;42.708;23.360;2023-03-05T02:40:42;94886.28;;;7.11;66.66
36192;BME280;22233;42.708;23.360;2023-03-05T02:43:08;94885.94;;;7.27;65.70
36192;BME280;22233;42.708;23.360;2023-03-05T02:45:33;94883.69;;;7.43;65.45
36192;BME280;22233;42.708;23.360;2023-03-05T02:47:59;94894.44;;;7.56;64.75
36192;BME280;22233;42.708;23.360;2023-03-05T02:50:26;94890.97;;;7.19;66.53
36192;BME280;22233;42.708;23.360;2023-03-05T02:52:52;94884.59;;;7.38;65.58
36192;BME280;22233;42.708;23.360;2023-03-05T02:55:17;94882.06;;;7.19;65.82
36192;BME280;22233;42.708;23.360;2023-03-05T02:57:43;94898.13;;;7.24;66.30
36192;BME280;22233;42.708;23.360;2023-03-05T03:00:09;94890.31;;;7.36;66.06
36192;BME280;22233;42.708;23.360;2023-03-05T03:02:34;94894.09;;;6.99;67.24
36192;BME280;22233;42.708;23.360;2023-03-05T03:05:00;94886.19;;;7.03;67.24
36192;BME280;22233;42.708;23.360;2023-03-05T03:07:25;94896.41;;;6.92;67.53
36192;BME280;22233;42.708;23.360;2023-03-05T03:09:51;94887.81;;;6.90;67.46
36192;BME280;22233;42.708;23.360;2023-03-05T03:12:16;94879.69;;;7.04;66.28
36192;BME280;22233;42.708;23.360;2023-03-05T03:14:41;94886.34;;;7.20;66.10
36192;BME280;22233;42.708;23.360;2023-03-05T03:17:13;94875.41;;;7.03;66.61
36192;BME280;22233;42.708;23.360;2023-03-05T03:19:39;94887.44;;;6.83;67.00
36192;BME280;22233;42.708;23.360;2023-03-05T03:22:06;94898.28;;;7.05;66.51
36192;BME280;22233;42.708;23.360;2023-03-05T03:24:32;94890.50;;;6.76;67.49
36192;BME280;22233;42.708;23.360;2023-03-05T03:26:57;94890.44;;;6.53;68.18
36192;BME280;22233;42.708;23.360;2023-03-05T03:29:23;94879.44;;;6.64;67.24
36192;BME280;22233;42.708;23.360;2023-03-05T03:31:49;94878.94;;;6.62;67.69
36192;BME280;22233;42.708;23.360;2023-03-05T03:34:15;94885.44;;;6.74;67.55
36192;BME280;22233;42.708;23.360;2023-03-05T03:36:42;94873.03;;;6.18;68.66
36192;BME280;22233;42.708;23.360;2023-03-05T03:39:07;94889.22;;;6.46;68.41
36192;BME280;22233;42.708;23.360;2023-03-05T03:41:35;94876.81;;;6.17;68.57
36192;BME280;22233;42.708;23.360;2023-03-05T03:44:01;94879.53;;;6.31;68.47
36192;BME280;22233;42.708;23.360;2023-03-05T03:46:31;94905.03;;;6.38;68.30
36192;BME280;22233;42.708;23.360;2023-03-05T03:48:57;94881.03;;;6.65;67.92
36192;BME280;22233;42.708;23.360;2023-03-05T03:51:22;94891.75;;;6.42;68.53
36192;BME280;22233;42.708;23.360;2023-03-05T03:53:48;94885.41;;;6.19;68.75
36192;BME280;22233;42.708;23.360;2023-03-05T03:56:13;94896.94;;;6.38;68.74
36192;BME280;22233;42.708;23.360;2023-03-05T03:58:38;94873.69;;;5.96;69.36
36192;BME280;22233;42.708;23.360;2023-03-05T04:01:04;94895.81;;;6.39;68.61
36192;BME280;22233;42.708;23.360;2023-03-05T04:03:29;94905.41;;;6.46;68.76
36192;BME280;22233;42.708;23.360;2023-03-05T04:05:55;94878.28;;;6.09;69.80
36192;BME280;22233;42.708;23.360;2023-03-05T04:08:20;94897.91;;;6.29;68.43
36192;BME280;22233;42.708;23.360;2023-03-05T04:10:45;94904.38;;;6.28;69.00
36192;BME280;22233;42.708;23.360;2023-03-05T04:13:11;94888.22;;;6.14;68.91
36192;BME280;22233;42.708;23.360;2023-03-05T04:15:36;94889.22;;;6.18;68.62
36192;BME280;22233;42.708;23.360;2023-03-05T04:18:02;94897.31;;;6.18;69.01
36192;BME280;22233;42.708;23.360;2023-03-05T04:20:27;94906.78;;;6.29;68.16
36192;BME280;22233;42.708;23.360;2023-03-05T04:22:52;94905.09;;;6.33;68.10
36192;BME280;22233;42.708;23.360;2023-03-05T04:25:18;94904.91;;;6.57;67.32
36192;BME280;22233;42.708;23.360;2023-03-05T04:27:43;94890.13;;;6.55;66.97
36192;BME280;22233;42.708;23.360;2023-03-05T04:30:12;94902.03;;;6.40;67.94
36192;BME280;22233;42.708;23.360;2023-03-05T04:32:39;94890.53;;;6.34;67.47
36192;BME280;22233;42.708;23.360;2023-03-05T04:35:05;94889.94;;;6.51;66.53
36192;BME280;22233;42.708;23.360;2023-03-05T04:37:30;94890.41;;;6.39;66.98
36192;BME280;22233;42.708;23.360;2023-03-05T04:39:56;94890.84;;;6.47;66.97
36192;BME280;22233;42.708;23.360;2023-03-05T04:42:21;94886.31;;;6.70;66.00
36192;BME280;22233;42.708;23.360;2023-03-05T04:44:48;94897.31;;;6.46;67.40
36192;BME280;22233;42.708;23.360;2023-03-05T04:47:14;94883.81;;;6.46;66.87
36192;BME280;22233;42.708;23.360;2023-03-05T04:49:40;94890.72;;;6.52;66.66
36192;BME280;22233;42.708;23.360;2023-03-05T04:52:05;94891.00;;;6.23;66.29
36192;BME280;22233;42.708;23.360;2023-03-05T04:54:30;94888.44;;;6.45;66.21
36192;BME280;22233;42.708;23.360;2023-03-05T04:56:56;94877.34;;;6.74;65.41
36192;BME280;22233;42.708;23.360;2023-03-05T04:59:21;94894.31;;;6.61;65.40
36192;BME280;22233;42.708;23.360;2023-03-05T05:01:47;94887.03;;;6.48;66.02
36192;BME280;22233;42.708;23.360;2023-03-05T05:04:12;94882.81;;;6.14;66.95
36192;BME280;22233;42.708;23.360;2023-03-05T05:06:37;94885.66;;;6.04;67.22
36192;BME280;22233;42.708;23.360;2023-03-05T05:09:03;94889.22;;;6.46;65.84
36192;BME280;22233;42.708;23.360;2023-03-05T05:11:29;94884.94;;;6.58;65.83
36192;BME280;22233;42.708;23.360;2023-03-05T05:13:55;94880.03;;;6.60;65.91
36192;BME280;22233;42.708;23.360;2023-03-05T05:16:20;94887.94;;;6.71;65.13
36192;BME280;22233;42.708;23.360;2023-03-05T05:18:46;94885.03;;;6.81;64.77
36192;BME280;22233;42.708;23.360;2023-03-05T05:21:12;94897.41;;;6.27;66.00
36192;BME280;22233;42.708;23.360;2023-03-05T05:23:38;94901.91;;;6.45;66.54
36192;BME280;22233;42.708;23.360;2023-03-05T05:26:05;94899.22;;;6.59;65.30
36192;BME280;22233;42.708;23.360;2023-03-05T05:28:32;94892.72;;;6.74;65.44
36192;BME280;22233;42.708;23.360;2023-03-05T05:30:58;94896.63;;;6.54;65.92
36192;BME280;22233;42.708;23.360;2023-03-05T05:33:24;94890.81;;;6.19;66.78
36192;BME280;22233;42.708;23.360;2023-03-05T05:35:50;94898.09;;;6.18;66.83
36192;BME280;22233;42.708;23.360;2023-03-05T05:38:16;94891.66;;;6.00;66.99
36192;BME280;22233;42.708;23.360;2023-03-05T05:40:41;94898.81;;;6.24;66.10
36192;BME280;22233;42.708;23.360;2023-03-05T05:43:07;94902.88;;;6.22;66.23
36192;BME280;22233;42.708;23.360;2023-03-05T05:45:33;94897.31;;;6.32;65.75
36192;BME280;22233;42.708;23.360;2023-03-05T05:47:58;94891.22;;;6.26;65.27
36192;BME280;22233;42.708;23.360;2023-03-05T05:50:23;94890.25;;;6.36;65.33
36192;BME280;22233;42.708;23.360;2023-03-05T05:52:52;94906.22;;;6.32;65.15
36192;BME280;22233;42.708;23.360;2023-03-05T05:55:17;94911.50;;;6.51;65.20
36192;BME280;22233;42.708;23.360;2023-03-05T05:57:43;94907.81;;;6.47;65.14
36192;BME280;22233;42.708;23.360;2023-03-05T06:00:10;94899.13;;;6.36;65.27
36192;BME280;22233;42.708;23.360;2023-03-05T06:02:40;94906.03;;;6.43;65.27
36192;BME280;22233;42.708;23.360;2023-03-05T06:05:07;94915.63;;;6.76;63.90
36192;BME280;22233;42.708;23.360;2023-03-05T06:07:33;94916.22;;;6.73;63.95
36192;BME280;22233;42.708;23.360;2023-03-05T06:09:59;94912.72;;;6.87;63.50
36192;BME280;22233;42.708;23.360;2023-03-05T06:12:24;94914.81;;;6.76;63.37
36192;BME280;22233;42.708;23.360;2023-03-05T06:14:49;94931.41;;;6.55;63.97
36192;BME280;22233;42.708;23.360;2023-03-05T06:17:15;94919.59;;;6.51;63.83
36192;BME280;22233;42.708;23.360;2023-03-05T06:19:40;94907.13;;;6.69;62.84
36192;BME280;22233;42.708;23.360;2023-03-05T06:22:05;94917.22;;;6.77;61.99
36192;BME280;22233;42.708;23.360;2023-03-05T06:24:31;94930.22;;;6.75;63.09
36192;BME280;22233;42.708;23.360;2023-03-05T06:26:56;94933.91;;;6.52;62.78
36192;BME280;22233;42.708;23.360;2023-03-05T06:29:22;94929.91;;;6.91;61.60
36192;BME280;22233;42.708;23.360;2023-03-05T06:31:47;94931.50;;;6.50;62.65
36192;BME280;22233;42.708;23.360;2023-03-05T06:34:13;94937.09;;;6.54;61.68
36192;BME280;22233;42.708;23.360;2023-03-05T06:36:38;94934.91;;;6.56;61.31
36192;BME280;22233;42.708;23.360;2023-03-05T06:39:05;94940.00;;;6.85;61.09
36192;BME280;22233;42.708;23.360;2023-03-05T06:41:31;94940.72;;;6.91;60.67
36192;BME280;22233;42.708;23.360;2023-03-05T06:43:58;94936.41;;;7.04;59.90
36192;BME280;22233;42.708;23.360;2023-03-05T06:46:26;94930.63;;;6.69;60.94
36192;BME280;22233;42.708;23.360;2023-03-05T06:48:54;94934.03;;;6.74;59.98
36192;BME280;22233;42.708;23.360;2023-03-05T06:51:23;94942.41;;;6.87;60.10
36192;BME280;22233;42.708;23.360;2023-03-05T06:53:50;94912.22;;;6.43;60.73
36192;BME280;22233;42.708;23.360;2023-03-05T06:56:17;94942.09;;;6.47;61.44
36192;BME280;22233;42.708;23.360;2023-03-05T06:58:44;94950.03;;;6.85;60.29
36192;BME280;22233;42.708;23.360;2023-03-05T07:01:10;94952.41;;;6.72;61.02
36192;BME280;22233;42.708;23.360;2023-03-05T07:03:36;94957.63;;;6.96;59.86
36192;BME280;22233;42.708;23.360;2023-03-05T07:06:06;94943.00;;;6.56;60.35
36192;BME280;22233;42.708;23.360;2023-03-05T07:08:32;94956.91;;;6.77;60.30
36192;BME280;22233;42.708;23.360;2023-03-05T07:10:58;94960.69;;;6.90;59.46
36192;BME280;22233;42.708;23.360;2023-03-05T07:13:25;94954.00;;;6.73;59.96
36192;BME280;22233;42.708;23.360;2023-03-05T07:15:51;94944.81;;;6.74;60.26
36192;BME280;22233;42.708;23.360;2023-03-05T07:18:16;94951.09;;;7.25;59.10
36192;BME280;22233;42.708;23.360;2023-03-05T07:20:42;94950.44;;;7.42;58.21
36192;BME280;22233;42.708;23.360;2023-03-05T07:23:07;94941.97;;;7.35;58.08
36192;BME280;22233;42.708;23.360;2023-03-05T07:25:35;94939.50;;;7.11;58.75
36192;BME280;22233;42.708;23.360;2023-03-05T07:28:00;94951.28;;;7.29;58.33
36192;BME280;22233;42.708;23.360;2023-03-05T07:30:26;94942.75;;;7.35;57.94
36192;BME280;22233;42.708;23.360;2023-03-05T07:32:51;94943.84;;;7.34;57.98
36192;BME280;22233;42.708;23.360;2023-03-05T07:35:16;94951.13;;;7.48;57.67
36192;BME280;22233;42.708;23.360;2023-03-05T07:37:42;94952.78;;;7.35;57.67
36192;BME280;22233;42.708;23.360;2023-03-05T07:40:08;94927.72;;;7.43;57.56
36192;BME280;22233;42.708;23.360;2023-03-05T07:42:34;94943.56;;;7.95;57.09
36192;BME280;22233;42.708;23.360;2023-03-05T07:44:59;94939.50;;;8.06;56.17
36192;BME280;22233;42.708;23.360;2023-03-05T07:47:25;94937.84;;;7.74;56.82
36192;BME280;22233;42.708;23.360;2023-03-05T07:49:50;94931.16;;;7.71;57.28
36192;BME280;22233;42.708;23.360;2023-03-05T07:52:17;94916.84;;;8.25;58.60
36192;BME280;22233;42.708;23.360;2023-03-05T07:54:42;94932.03;;;8.03;56.55
36192;BME280;22233;42.708;23.360;2023-03-05T07:57:09;94935.97;;;8.28;55.59
36192;BME280;22233;42.708;23.360;2023-03-05T07:59:36;94943.13;;;8.24;56.16
36192;BME280;22233;42.708;23.360;2023-03-05T08:02:02;94915.94;;;8.29;56.37
36192;BME280;22233;42.708;23.360;2023-03-05T08:04:27;94940.78;;;8.31;56.77
36192;BME280;22233;42.708;23.360;2023-03-05T08:06:58;94939.66;;;8.32;55.44
36192;BME280;22233;42.708;23.360;2023-03-05T08:09:24;94940.28;;;8.29;56.69
36192;BME280;22233;42.708;23.360;2023-03-05T08:11:49;94930.31;;;8.38;56.24
36192;BME280;22233;42.708;23.360;2023-03-05T08:14:14;94924.38;;;8.28;56.05
36192;BME280;22233;42.708;23.360;2023-03-05T08:16:40;94932.28;;;8.24;55.42
36192;BME280;22233;42.708;23.360;2023-03-05T08:19:05;94932.00;;;8.26;55.17
36192;BME280;22233;42.708;23.360;2023-03-05T08:21:34;94916.72;;;8.52;54.60
36192;BME280;22233;42.708;23.360;2023-03-05T08:24:02;94939.13;;;8.84;54.54
36192;BME280;22233;42.708;23.360;2023-03-05T08:26:29;94926.41;;;8.22;55.78
36192;BME280;22233;42.708;23.360;2023-03-05T08:28:56;94930.25;;;8.52;55.32
36192;BME280;22233;42.708;23.360;2023-03-05T08:31:23;94924.72;;;8.66;53.97
36192;BME280;22233;42.708;23.360;2023-03-05T08:33:51;94938.66;;;8.82;53.91
36192;BME280;22233;42.708;23.360;2023-03-05T08:36:17;94926.38;;;8.76;54.37
36192;BME280;22233;42.708;23.360;2023-03-05T08:38:42;94925.69;;;8.62;54.85
36192;BME280;22233;42.708;23.360;2023-03-05T08:41:09;94922.19;;;8.38;55.69
36192;BME280;22233;42.708;23.360;2023-03-05T08:43:35;94916.69;;;8.44;54.95
36192;BME280;22233;42.708;23.360;2023-03-05T08:46:01;94919.22;;;8.80;53.51
36192;BME280;22233;42.708;23.360;2023-03-05T08:48:27;94911.09;;;8.80;54.70
36192;BME280;22233;42.708;23.360;2023-03-05T08:50:53;94922.88;;;8.75;55.18
36192;BME280;22233;42.708;23.360;2023-03-05T08:53:18;94912.84;;;8.45;55.59
36192;BME280;22233;42.708;23.360;2023-03-05T08:55:53;94921.03;;;8.53;54.90
36192;BME280;22233;42.708;23.360;2023-03-05T08:58:18;94903.66;;;8.54;54.80
36192;BME280;22233;42.708;23.360;2023-03-05T09:00:44;94912.97;;;8.39;54.62
36192;BME280;22233;42.708;23.360;2023-03-05T09:03:09;94914.38;;;8.59;53.66
36192;BME280;22233;42.708;23.360;2023-03-05T09:05:35;94894.47;;;8.64;53.88
36192;BME280;22233;42.708;23.360;2023-03-05T09:08:00;94881.09;;;8.36;54.57
36192;BME280;22233;42.708;23.360;2023-03-05T09:10:25;94894.19;;;8.74;54.18
36192;BME280;22233;42.708;23.360;2023-03-05T09:12:51;94889.00;;;8.95;54.00
36192;BME280;22233;42.708;23.360;2023-03-05T09:15:16;94885.84;;;8.53;53.96
36192;BME280;22233;42.708;23.360;2023-03-05T09:17:41;94880.44;;;8.62;54.00
36192;BME280;22233;42.708;23.360;2023-03-05T09:20:10;94883.06;;;8.85;53.03
36192;BME280;22233;42.708;23.360;2023-03-05T09:22:36;94877.44;;;8.72;53.27
36192;BME280;22233;42.708;23.360;2023-03-05T09:25:02;94884.78;;;8.80;53.39
36192;BME280;22233;42.708;23.360;2023-03-05T09:27:27;94881.97;;;8.86;53.60
36192;BME280;22233;42.708;23.360;2023-03-05T09:29:53;94876.13;;;9.18;53.10
36192;BME280;22233;42.708;23.360;2023-03-05T09:32:19;94878.22;;;9.30;51.84
36192;BME280;22233;42.708;23.360;2023-03-05T09:34:45;94871.69;;;9.49;51.07
36192;BME280;22233;42.708;23.360;2023-03-05T09:37:10;94865.00;;;9.46;51.05
36192;BME280;22233;42.708;23.360;2023-03-05T09:39:36;94874.38;;;9.57;50.08
36192;BME280;22233;42.708;23.360;2023-03-05T09:47:51;94864.03;;;9.42;50.23
36192;BME280;22233;42.708;23.360;2023-03-05T09:50:47;94861.78;;;9.53;49.37
36192;BME280;22233;42.708;23.360;2023-03-05T09:56:02;94853.63;;;9.79;48.40
36192;BME280;22233;42.708;23.360;2023-03-05T09:58:40;94843.91;;;9.87;46.52
36192;BME280;22233;42.708;23.360;2023-03-05T10:01:25;94826.16;;;9.89;45.89
36192;BME280;22233;42.708;23.360;2023-03-05T10:06:28;94845.63;;;9.91;46.68
36192;BME280;22233;42.708;23.360;2023-03-05T10:14:01;94823.94;;;9.83;47.09
36192;BME280;22233;42.708;23.360;2023-03-05T10:25:09;94829.53;;;9.77;45.34
36192;BME280;22233;42.708;23.360;2023-03-05T10:33:16;94813.13;;;10.38;44.26
36192;BME280;22233;42.708;23.360;2023-03-05T10:40:59;94790.34;;;10.61;43.83
36192;BME280;22233;42.708;23.360;2023-03-05T10:44:03;94798.78;;;10.89;42.99
36192;BME280;22233;42.708;23.360;2023-03-05T10:46:21;94779.94;;;10.24;43.27
36192;BME280;22233;42.708;23.360;2023-03-05T10:48:56;94775.94;;;10.60;44.14
36192;BME280;22233;42.708;23.360;2023-03-05T10:51:37;94791.91;;;10.62;42.71
36192;BME280;22233;42.708;23.360;2023-03-05T10:56:39;94774.13;;;10.94;42.70
36192;BME280;22233;42.708;23.360;2023-03-05T10:59:05;94781.50;;;10.93;42.03
36192;BME280;22233;42.708;23.360;2023-03-05T11:01:30;94759.41;;;10.74;43.78
36192;BME280;22233;42.708;23.360;2023-03-05T11:04:01;94773.44;;;10.46;43.37
36192;BME280;22233;42.708;23.360;2023-03-05T11:06:41;94758.00;;;10.38;44.30
36192;BME280;22233;42.708;23.360;2023-03-05T11:09:27;94765.59;;;10.15;44.67
36192;BME280;22233;42.708;23.360;2023-03-05T11:12:19;94748.75;;;10.39;44.09
36192;BME280;22233;42.708;23.360;2023-03-05T11:17:35;94758.34;;;10.36;45.11
36192;BME280;22233;42.708;23.360;2023-03-05T11:25:34;94751.38;;;10.98;44.17
36192;BME280;22233;42.708;23.360;2023-03-05T11:28:02;94742.66;;;11.35;43.84
36192;BME280;22233;42.708;23.360;2023-03-05T11:30:35;94738.41;;;11.04;44.01
36192;BME280;22233;42.708;23.360;2023-03-05T11:33:19;94737.44;;;11.75;41.97
36192;BME280;22233;42.708;23.360;2023-03-05T11:35:46;94733.91;;;11.75;41.84
36192;BME280;22233;42.708;23.360;2023-03-05T11:38:51;94728.91;;;11.77;41.90
36192;BME280;22233;42.708;23.360;2023-03-05T11:41:26;94710.69;;;11.44;42.97
36192;BME280;22233;42.708;23.360;2023-03-05T11:43:53;94704.31;;;11.28;42.86
36192;BME280;22233;42.708;23.360;2023-03-05T11:46:20;94700.28;;;11.46;42.80
36192;BME280;22233;42.708;23.360;2023-03-05T11:48:46;94702.38;;;11.62;42.63
36192;BME280;22233;42.708;23.360;2023-03-05T11:53:45;94675.19;;;11.28;42.85
36192;BME280;22233;42.708;23.360;2023-03-05T11:56:29;94690.13;;;11.55;42.51
36192;BME280;22233;42.708;23.360;2023-03-05T11:59:16;94687.03;;;11.90;41.57
36192;BME280;22233;42.708;23.360;2023-03-05T12:01:47;94688.06;;;12.10;42.22
36192;BME280;22233;42.708;23.360;2023-03-05T12:04:14;94662.78;;;11.97;42.66
36192;BME280;22233;42.708;23.360;2023-03-05T12:06:44;94679.94;;;11.77;43.01
36192;BME280;22233;42.708;23.360;2023-03-05T12:15:01;94669.22;;;12.30;41.20
36192;BME280;22233;42.708;23.360;2023-03-05T12:17:35;94663.31;;;11.91;41.63
36192;BME280;22233;42.708;23.360;2023-03-05T12:23:16;94653.88;;;11.88;41.30
36192;BME280;22233;42.708;23.360;2023-03-05T12:25:48;94640.44;;;12.04;40.96
36192;BME280;22233;42.708;23.360;2023-03-05T12:28:16;94652.94;;;12.70;39.75
36192;BME280;22233;42.708;23.360;2023-03-05T12:38:41;94637.47;;;12.34;40.26
36192;BME280;22233;42.708;23.360;2023-03-05T12:46:46;94637.38;;;12.06;41.00
36192;BME280;22233;42.708;23.360;2023-03-05T12:51:53;94635.16;;;11.74;41.79
36192;BME280;22233;42.708;23.360;2023-03-05T12:57:04;94635.06;;;11.83;41.03
36192;BME280;22233;42.708;23.360;2023-03-05T12:59:47;94625.84;;;11.05;42.54
36192;BME280;22233;42.708;23.360;2023-03-05T13:02:31;94626.38;;;10.98;43.23
36192;BME280;22233;42.708;23.360;2023-03-05T13:05:03;94617.34;;;10.73;43.62
36192;BME280;22233;42.708;23.360;2023-03-05T13:07:29;94625.88;;;10.84;42.44
36192;BME280;22233;42.708;23.360;2023-03-05T13:09:57;94618.69;;;10.46;42.64
36192;BME280;22233;42.708;23.360;2023-03-05T13:12:25;94617.81;;;10.75;43.24
36192;BME280;22233;42.708;23.360;2023-03-05T13:15:04;94629.22;;;11.02;42.68
36192;BME280;22233;42.708;23.360;2023-03-05T13:17:31;94627.06;;;10.95;42.92
36192;BME280;22233;42.708;23.360;2023-03-05T13:20:00;94623.16;;;11.05;43.22
36192;BME280;22233;42.708;23.360;2023-03-05T13:22:26;94625.47;;;11.28;42.49
36192;BME280;22233;42.708;23.360;2023-03-05T13:27:31;94592.41;;;11.38;41.02
36192;BME280;22233;42.708;23.360;2023-03-05T13:29:57;94605.34;;;11.53;41.60
36192;BME280;22233;42.708;23.360;2023-03-05T13:32:29;94609.56;;;11.75;41.91
36192;BME280;22233;42.708;23.360;2023-03-05T13:34:59;94609.09;;;11.73;40.64
36192;BME280;22233;42.708;23.360;2023-03-05T13:37:30;94622.59;;;12.19;40.46
36192;BME280;22233;42.708;23.360;2023-03-05T13:40:03;94608.09;;;12.03;39.84
36192;BME280;22233;42.708;23.360;2023-03-05T13:42:34;94620.31;;;11.84;40.50
36192;BME280;22233;42.708;23.360;2023-03-05T13:45:03;94614.16;;;11.50;41.50
36192;BME280;22233;42.708;23.360;2023-03-05T13:47:31;94620.66;;;11.58;41.20
36192;BME280;22233;42.708;23.360;2023-03-05T13:50:06;94616.69;;;11.10;42.15
36192;BME280;22233;42.708;23.360;2023-03-05T13:52:37;94609.69;;;11.09;42.06
36192;BME280;22233;42.708;23.360;2023-03-05T13:55:10;94611.13;;;10.52;43.67
36192;BME280;22233;42.708;23.360;2023-03-05T13:57:42;94632.06;;;10.72;43.79
36192;BME280;22233;42.708;23.360;2023-03-05T14:02:57;94618.69;;;10.67;43.64
36192;BME280;22233;42.708;23.360;2023-03-05T14:05:27;94625.50;;;10.31;43.87
36192;BME280;22233;42.708;23.360;2023-03-05T14:07:55;94626.09;;;10.58;44.43
36192;BME280;22233;42.708;23.360;2023-03-05T14:12:49;94616.84;;;10.59;43.72
36192;BME280;22233;42.708;23.360;2023-03-05T14:17:48;94611.06;;;11.15;42.91
36192;BME280;22233;42.708;23.360;2023-03-05T14:20:22;94612.88;;;11.23;41.86
36192;BME280;22233;42.708;23.360;2023-03-05T14:22:49;94612.09;;;10.89;42.85
36192;BME280;22233;42.708;23.360;2023-03-05T14:28:23;94608.69;;;10.92;42.45
36192;BME280;22233;42.708;23.360;2023-03-05T14:30:52;94587.66;;;10.68;42.59
36192;BME280;22233;42.708;23.360;2023-03-05T14:35:48;94614.56;;;10.40;44.03